Airfield :
LOGIN :

Register | Disclaimer

   EN    FR    IT 

 










Legend :    VFR   Marginal VFR   IFR   Intensive IFR   Very Intensive IFR
Visi :
Ceiling :
>= 8 km
>= 3000ft
5 to 8 km
1000 to 3000 ft
1500m to 5 km
500 to 1000 ft
800 to 1500m
200 to 500 ft
< 800m
< 200 ft
Symbols :   Thunderstorms  Fog  Heavy snow  Heavy precipitations  Wind > 20 kt
SIGMETs :     Misc.  Thunderstorms  Icing  Turbulence  Mountain Waves  Volcanic Ashes







- Airport Elevation : 359 ft
- IATA code : DEB


LHDC - Debrecen

CURRENT METAR :
  • 212345Z AUTO 07004KT 020V090 CAVOK 12/03 Q1017 NOSIG

EXPIRED METARs :
  • 212315Z AUTO 09005KT 060V140 CAVOK 12/02 Q1017 NOSIG
  • 212245Z AUTO 07006KT CAVOK 12/03 Q1017 NOSIG
  • 212215Z AUTO 07008KT CAVOK 13/02 Q1017 NOSIG
  • 212145Z AUTO 05005KT 9000 NSC 11/02 Q1018 NOSIG
  • 212115Z AUTO 07004KT 030V090 9000 NSC 11/01 Q1018 NOSIG

TAF TAF LHDC
Valid from the 21 at 21:00 until the 22 at 06:00 UTC


212015Z 2121/2206 05004KT 9000 NSC
PROB40
TEMPO 2121/2206 5000 -RA -SHRA SCT040 BKN080
BECMG 2121/2124 11005KT
BECMG 2200/2203 08009KT
BECMG 2203/2206 10013G23KT CAVOK
No reported NOTAMs for that airfield.



MET'MAP, your aeronautical weather chart ! - Copyright ORBIFLY December 2007 - Disclaimer

ORBIFLY MET'MAP TEAM :

Programming & Development : Alexandra Zaïnal
Concept & Development : Baudouin d'Aumeries
Co-Development & Prog : Marc-Olivier Méhu
Technical & hardware support : Manuel Goepfert

Contact : metmap@orbifly.com




SOURCES & CREDITS :

   NOAA